createdAt,value
2019-05-20T00:11:15.756Z,12.13
2019-05-20T00:16:43.541Z,13.32
2019-05-20T00:36:28.536Z,13.53
2019-05-20T00:42:30.918Z,12.33
2019-05-20T00:45:12.841Z,14.35
2019-05-20T00:47:56.197Z,13.35
2019-05-20T00:59:32.645Z,12.80
2019-05-20T01:02:06.649Z,10.55
2019-05-20T01:08:06.346Z,13.98
2019-05-20T01:25:51.550Z,11.35
2019-05-20T01:34:55.920Z,10.98
2019-05-20T01:37:52.422Z,14.63
2019-05-20T02:16:47.649Z,12.20
2019-05-20T02:19:37.051Z,13.50
2019-05-20T02:22:12.962Z,12.82
2019-05-20T02:34:16.278Z,12.45
2019-05-20T02:46:13.345Z,12.88
2019-05-20T02:49:01.648Z,10.38
2019-05-20T03:09:24.990Z,10.10
2019-05-20T03:14:51.058Z,9.50
2019-05-20T03:26:29.319Z,10.38
2019-05-20T03:29:05.427Z,10.58
2019-05-20T03:31:59.874Z,10.45
2019-05-20T03:34:46.678Z,10.85
2019-05-20T03:37:24.963Z,12.03
2019-05-20T03:40:03.400Z,10.80
2019-05-20T03:45:55.378Z,10.85
2019-05-20T03:48:17.202Z,13.68
2019-05-20T03:51:17.859Z,12.65
2019-05-20T03:54:12.370Z,19.02
2019-05-20T03:56:57.060Z,12.20
2019-05-20T04:02:41.544Z,11.97
2019-05-20T04:11:14.334Z,12.45
2019-05-20T04:14:01.812Z,10.32
2019-05-20T04:16:37.305Z,14.65
2019-05-20T04:19:23.711Z,16.00
2019-05-20T04:27:53.857Z,12.20
2019-05-20T04:30:37.722Z,16.00
2019-05-20T04:38:58.252Z,10.93
2019-05-20T04:41:35.452Z,11.43
2019-05-20T04:44:07.592Z,31.30
2019-05-20T04:52:40.243Z,13.18
2019-05-20T05:01:15.643Z,13.32
2019-05-20T05:12:56.833Z,15.35
2019-05-20T05:15:55.543Z,13.38
2019-05-20T05:18:34.059Z,12.98
2019-05-20T05:32:55.664Z,13.43
2019-05-20T06:23:58.638Z,13.00
2019-05-20T06:26:29.566Z,14.00
2019-05-20T06:32:01.223Z,13.93
2019-05-20T06:43:29.430Z,16.95
2019-05-20T06:51:56.655Z,19.05
2019-05-20T07:00:45.014Z,20.62
2019-05-20T07:03:52.712Z,22.90
2019-05-20T07:06:46.029Z,19.42
2019-05-20T07:09:35.411Z,23.38
2019-05-20T07:17:50.329Z,16.27
2019-05-20T07:24:06.108Z,15.53
2019-05-20T08:25:36.460Z,18.10
2019-05-20T08:28:11.505Z,24.67
2019-05-20T08:30:58.796Z,21.33
2019-05-20T08:33:37.347Z,18.25
2019-05-20T08:36:06.166Z,15.63
2019-05-20T08:38:42.038Z,24.25
2019-05-20T08:44:11.490Z,37.28
2019-05-20T08:46:43.986Z,24.40
2019-05-20T08:52:57.646Z,30.48
2019-05-20T08:54:53.437Z,18.75
2019-05-20T08:57:45.733Z,37.13
2019-05-20T09:00:12.976Z,15.23
2019-05-20T09:02:50.496Z,16.57
2019-05-20T09:23:27.744Z,15.50
2019-05-20T09:26:08.434Z,12.60
2019-05-20T11:14:06.895Z,5.33
2019-05-20T11:16:34.985Z,4.05
2019-05-20T11:19:07.913Z,6.03
2019-05-20T11:21:37.334Z,4.78
2019-05-20T11:24:14.088Z,4.47
2019-05-20T11:26:46.575Z,4.65
2019-05-20T11:29:19.056Z,6.25
2019-05-20T11:31:56.711Z,5.67
2019-05-20T11:34:26.931Z,4.95
2019-05-20T11:37:04.512Z,4.05
2019-05-20T11:39:40.335Z,4.58
2019-05-20T11:42:10.886Z,3.33
2019-05-20T11:44:49.495Z,3.20
2019-05-20T11:47:21.995Z,3.72
2019-05-20T11:49:55.212Z,3.35
2019-05-20T11:52:29.378Z,3.33
2019-05-20T11:55:02.594Z,3.75
2019-05-20T11:57:37.925Z,3.52
2019-05-20T12:00:10.604Z,4.08
2019-05-20T12:02:45.286Z,3.62
2019-05-20T12:05:19.506Z,3.33
2019-05-20T12:07:50.824Z,2.90
2019-05-20T12:10:23.251Z,3.30
2019-05-20T12:12:52.711Z,3.27
2019-05-20T12:15:22.634Z,2.80
2019-05-20T12:17:55.015Z,3.47
2019-05-20T12:20:44.173Z,2.00
2019-05-20T12:23:20.249Z,2.05
2019-05-20T12:26:09.531Z,3.92
2019-05-20T12:28:42.676Z,2.87
2019-05-20T12:31:17.353Z,2.60
2019-05-20T12:33:58.079Z,3.20
2019-05-20T12:36:34.811Z,2.22
2019-05-20T12:39:08.354Z,2.92
2019-05-20T12:41:42.087Z,3.85
2019-05-20T12:44:15.885Z,2.55
2019-05-20T12:46:52.981Z,3.87
2019-05-20T12:49:33.239Z,1.98
2019-05-20T12:52:47.289Z,2.70
2019-05-20T12:55:08.015Z,6.87
2019-05-20T13:00:30.797Z,2.10
2019-05-20T13:03:11.477Z,2.05
2019-05-20T13:05:52.092Z,3.85
2019-05-20T13:09:30.040Z,4.12
2019-05-20T13:11:24.923Z,2.27
2019-05-20T13:13:57.419Z,3.40
2019-05-20T13:16:33.069Z,3.98
2019-05-20T13:19:06.241Z,3.27
2019-05-20T13:21:39.661Z,2.70
2019-05-20T13:24:15.909Z,4.80
2019-05-20T13:27:07.481Z,5.20
2019-05-20T13:29:42.526Z,5.10
2019-05-20T13:35:20.837Z,19.27
2019-05-20T13:41:04.239Z,1.17
2019-05-20T13:43:32.987Z,1.12
2019-05-20T13:46:01.774Z,1.82
2019-05-20T13:48:30.638Z,1.40
2019-05-20T13:50:59.490Z,3.02
2019-05-20T13:53:28.244Z,4.00
2019-05-20T13:55:56.992Z,3.40
2019-05-20T13:58:25.785Z,7.45
2019-05-20T14:00:54.633Z,5.35
2019-05-20T14:03:23.372Z,3.98
2019-05-20T14:05:52.144Z,6.03
2019-05-20T14:08:20.983Z,2.42
2019-05-20T14:11:03.113Z,3.45
2019-05-20T14:13:20.175Z,4.80
2019-05-20T14:15:51.827Z,2.12
2019-05-20T14:18:20.684Z,1.75
2019-05-20T14:20:49.577Z,3.60
2019-05-20T14:23:18.378Z,2.95
2019-05-20T14:25:47.131Z,1.25
2019-05-20T14:28:15.999Z,1.20
2019-05-20T14:30:45.332Z,2.25
2019-05-20T14:33:14.180Z,2.45
2019-05-20T14:35:42.997Z,2.40
2019-05-20T14:38:11.775Z,1.30
2019-05-20T14:40:40.652Z,0.90
2019-05-20T14:43:09.642Z,3.25
2019-05-20T14:45:41.068Z,2.05
2019-05-20T14:48:10.034Z,3.27
2019-05-20T14:50:39.161Z,4.97
2019-05-20T14:53:08.580Z,1.55
2019-05-20T14:55:42.602Z,0.82
2019-05-20T14:58:09.660Z,2.37
2019-05-20T15:00:38.521Z,0.88
2019-05-20T15:03:09.506Z,1.47
2019-05-20T15:05:38.563Z,0.90
2019-05-20T15:08:07.878Z,6.70
2019-05-20T15:10:37.295Z,4.20
2019-05-20T15:13:06.053Z,2.35
2019-05-20T15:15:35.413Z,2.30
2019-05-20T15:18:05.103Z,0.80
2019-05-20T15:20:33.995Z,1.80
2019-05-20T15:23:04.393Z,0.30
2019-05-20T15:25:34.241Z,0.33
2019-05-20T15:28:04.139Z,0.50
2019-05-20T15:30:33.140Z,1.30
2019-05-20T15:33:03.018Z,4.55
2019-05-20T15:35:32.033Z,0.60
2019-05-20T15:38:02.338Z,0.60
2019-05-20T15:40:32.710Z,1.47
2019-05-20T15:43:01.533Z,1.02
2019-05-20T15:45:30.392Z,3.50
2019-05-20T15:48:00.572Z,1.62
2019-05-20T15:50:29.462Z,1.52
2019-05-20T15:52:58.372Z,1.87
2019-05-20T15:55:27.227Z,2.05
2019-05-20T15:57:56.107Z,2.12
2019-05-20T16:00:25.017Z,1.77
2019-05-20T16:02:55.365Z,2.00
2019-05-20T16:05:24.107Z,2.10
2019-05-20T16:17:32.771Z,5.70
2019-05-20T16:20:02.630Z,34.27
2019-05-20T16:22:34.020Z,8.40
2019-05-20T16:25:02.783Z,4.75
2019-05-20T16:27:32.821Z,4.62
2019-05-20T16:30:06.619Z,2.42
2019-05-20T16:32:41.583Z,1.52
2019-05-20T16:35:16.215Z,3.20
2019-05-20T16:37:49.179Z,9.83
2019-05-20T16:40:19.537Z,1.62
2019-05-20T16:45:58.696Z,4.87
2019-05-20T18:03:54.572Z,3.67
2019-05-20T18:12:27.887Z,2.65
2019-05-20T18:14:58.177Z,2.40
2019-05-20T18:17:26.881Z,0.93
2019-05-20T18:19:55.579Z,0.60
2019-05-20T18:22:24.339Z,0.93
2019-05-20T18:24:53.122Z,0.98
2019-05-20T22:18:13.720Z,0.30
